sensor_id;sensor_type;location;lat;lon;timestamp;P1;durP1;ratioP1;P2;durP2;ratioP2
74535;SDS011;63013;51.104;-115.370;2022-12-18T00:01:33;0.30;;;0.30;;
74535;SDS011;63013;51.104;-115.370;2022-12-18T00:04:07;0.30;;;0.30;;
74535;SDS011;63013;51.104;-115.370;2022-12-18T00:06:48;0.40;;;0.30;;
74535;SDS011;63013;51.104;-115.370;2022-12-18T00:09:16;0.40;;;0.30;;
74535;SDS011;63013;51.104;-115.370;2022-12-18T00:11:44;0.30;;;0.30;;
74535;SDS011;63013;51.104;-115.370;2022-12-18T00:14:12;0.40;;;0.40;;
74535;SDS011;63013;51.104;-115.370;2022-12-18T00:16:42;0.30;;;0.30;;
74535;SDS011;63013;51.104;-115.370;2022-12-18T00:19:12;0.80;;;0.30;;
74535;SDS011;63013;51.104;-115.370;2022-12-18T00:21:41;0.30;;;0.30;;
74535;SDS011;63013;51.104;-115.370;2022-12-18T00:24:10;0.30;;;0.30;;
74535;SDS011;63013;51.104;-115.370;2022-12-18T00:26:38;0.30;;;0.30;;
74535;SDS011;63013;51.104;-115.370;2022-12-18T00:29:13;0.30;;;0.30;;
74535;SDS011;63013;51.104;-115.370;2022-12-18T00:31:42;0.40;;;0.40;;
74535;SDS011;63013;51.104;-115.370;2022-12-18T00:34:12;0.20;;;0.20;;
74535;SDS011;63013;51.104;-115.370;2022-12-18T00:36:41;0.40;;;0.20;;
74535;SDS011;63013;51.104;-115.370;2022-12-18T00:39:09;0.20;;;0.20;;
74535;SDS011;63013;51.104;-115.370;2022-12-18T00:41:38;0.20;;;0.20;;
74535;SDS011;63013;51.104;-115.370;2022-12-18T00:44:24;0.30;;;0.30;;
74535;SDS011;63013;51.104;-115.370;2022-12-18T00:46:51;0.30;;;0.30;;
74535;SDS011;63013;51.104;-115.370;2022-12-18T00:49:19;0.30;;;0.30;;
74535;SDS011;63013;51.104;-115.370;2022-12-18T00:51:47;2.20;;;0.80;;
74535;SDS011;63013;51.104;-115.370;2022-12-18T00:54:16;3.60;;;1.40;;
74535;SDS011;63013;51.104;-115.370;2022-12-18T00:56:44;8.40;;;2.60;;
74535;SDS011;63013;51.104;-115.370;2022-12-18T00:59:11;10.50;;;3.30;;
74535;SDS011;63013;51.104;-115.370;2022-12-18T01:01:38;17.10;;;4.20;;
74535;SDS011;63013;51.104;-115.370;2022-12-18T01:04:05;11.00;;;3.50;;
74535;SDS011;63013;51.104;-115.370;2022-12-18T01:06:33;7.30;;;2.80;;
74535;SDS011;63013;51.104;-115.370;2022-12-18T01:09:00;9.30;;;2.60;;
74535;SDS011;63013;51.104;-115.370;2022-12-18T01:11:28;11.80;;;2.70;;
74535;SDS011;63013;51.104;-115.370;2022-12-18T01:13:55;9.60;;;2.70;;
74535;SDS011;63013;51.104;-115.370;2022-12-18T01:16:22;7.80;;;2.30;;
74535;SDS011;63013;51.104;-115.370;2022-12-18T01:18:53;6.80;;;2.30;;
74535;SDS011;63013;51.104;-115.370;2022-12-18T01:21:22;8.20;;;2.10;;
74535;SDS011;63013;51.104;-115.370;2022-12-18T01:23:55;6.00;;;2.20;;
74535;SDS011;63013;51.104;-115.370;2022-12-18T01:26:24;7.30;;;2.20;;
74535;SDS011;63013;51.104;-115.370;2022-12-18T01:28:55;6.40;;;1.90;;
74535;SDS011;63013;51.104;-115.370;2022-12-18T01:31:26;7.20;;;1.60;;
74535;SDS011;63013;51.104;-115.370;2022-12-18T01:33:56;5.70;;;1.70;;
74535;SDS011;63013;51.104;-115.370;2022-12-18T01:36:29;5.20;;;2.00;;
74535;SDS011;63013;51.104;-115.370;2022-12-18T01:39:00;7.70;;;1.50;;
74535;SDS011;63013;51.104;-115.370;2022-12-18T01:41:30;4.90;;;1.40;;
74535;SDS011;63013;51.104;-115.370;2022-12-18T01:50:43;3.00;;;1.00;;
74535;SDS011;63013;51.104;-115.370;2022-12-18T01:53:21;5.10;;;1.00;;
74535;SDS011;63013;51.104;-115.370;2022-12-18T01:55:52;4.20;;;1.20;;
74535;SDS011;63013;51.104;-115.370;2022-12-18T01:58:35;3.00;;;1.00;;
74535;SDS011;63013;51.104;-115.370;2022-12-18T02:01:03;4.10;;;1.00;;
74535;SDS011;63013;51.104;-115.370;2022-12-18T02:03:31;4.30;;;1.20;;
74535;SDS011;63013;51.104;-115.370;2022-12-18T02:08:57;3.70;;;0.90;;
74535;SDS011;63013;51.104;-115.370;2022-12-18T02:11:43;4.00;;;1.10;;
74535;SDS011;63013;51.104;-115.370;2022-12-18T02:14:28;1.70;;;0.80;;
74535;SDS011;63013;51.104;-115.370;2022-12-18T02:17:14;2.90;;;0.80;;
74535;SDS011;63013;51.104;-115.370;2022-12-18T02:20:15;2.60;;;0.90;;
74535;SDS011;63013;51.104;-115.370;2022-12-18T02:23:54;2.90;;;0.70;;
74535;SDS011;63013;51.104;-115.370;2022-12-18T02:26:34;1.70;;;0.70;;
74535;SDS011;63013;51.104;-115.370;2022-12-18T02:29:25;2.00;;;0.60;;
74535;SDS011;63013;51.104;-115.370;2022-12-18T02:32:30;2.30;;;0.90;;
74535;SDS011;63013;51.104;-115.370;2022-12-18T02:35:05;3.30;;;1.00;;
74535;SDS011;63013;51.104;-115.370;2022-12-18T02:37:36;3.30;;;0.70;;
74535;SDS011;63013;51.104;-115.370;2022-12-18T02:40:12;1.90;;;0.80;;
74535;SDS011;63013;51.104;-115.370;2022-12-18T02:42:41;2.10;;;0.80;;
74535;SDS011;63013;51.104;-115.370;2022-12-18T02:45:09;3.10;;;0.70;;
74535;SDS011;63013;51.104;-115.370;2022-12-18T02:47:39;2.50;;;0.80;;
74535;SDS011;63013;51.104;-115.370;2022-12-18T02:53:27;2.30;;;0.70;;
74535;SDS011;63013;51.104;-115.370;2022-12-18T02:56:13;1.90;;;0.60;;
74535;SDS011;63013;51.104;-115.370;2022-12-18T02:59:13;2.10;;;0.70;;
74535;SDS011;63013;51.104;-115.370;2022-12-18T03:04:30;1.50;;;0.60;;
74535;SDS011;63013;51.104;-115.370;2022-12-18T03:07:19;1.50;;;0.70;;
74535;SDS011;63013;51.104;-115.370;2022-12-18T03:09:54;2.80;;;0.60;;
74535;SDS011;63013;51.104;-115.370;2022-12-18T03:12:45;1.90;;;0.60;;
74535;SDS011;63013;51.104;-115.370;2022-12-18T03:15:29;1.30;;;0.60;;
74535;SDS011;63013;51.104;-115.370;2022-12-18T03:18:04;1.40;;;0.60;;
74535;SDS011;63013;51.104;-115.370;2022-12-18T03:20:40;2.30;;;0.60;;
74535;SDS011;63013;51.104;-115.370;2022-12-18T03:23:14;1.50;;;0.70;;
74535;SDS011;63013;51.104;-115.370;2022-12-18T03:25:46;1.50;;;0.50;;
74535;SDS011;63013;51.104;-115.370;2022-12-18T03:28:20;1.30;;;0.50;;
74535;SDS011;63013;51.104;-115.370;2022-12-18T03:30:53;1.40;;;0.50;;
74535;SDS011;63013;51.104;-115.370;2022-12-18T03:33:33;1.00;;;0.50;;
74535;SDS011;63013;51.104;-115.370;2022-12-18T03:36:06;1.80;;;0.60;;
74535;SDS011;63013;51.104;-115.370;2022-12-18T03:38:34;2.00;;;0.80;;
74535;SDS011;63013;51.104;-115.370;2022-12-18T03:43:55;1.40;;;0.60;;
74535;SDS011;63013;51.104;-115.370;2022-12-18T03:49:25;2.30;;;0.60;;
74535;SDS011;63013;51.104;-115.370;2022-12-18T03:52:09;1.60;;;0.70;;
74535;SDS011;63013;51.104;-115.370;2022-12-18T03:54:42;2.10;;;0.50;;
74535;SDS011;63013;51.104;-115.370;2022-12-18T03:57:20;1.90;;;0.60;;
74535;SDS011;63013;51.104;-115.370;2022-12-18T03:59:52;1.10;;;0.50;;
74535;SDS011;63013;51.104;-115.370;2022-12-18T04:02:24;1.60;;;0.60;;
74535;SDS011;63013;51.104;-115.370;2022-12-18T04:04:56;1.20;;;0.70;;
74535;SDS011;63013;51.104;-115.370;2022-12-18T04:07:27;1.10;;;0.60;;
74535;SDS011;63013;51.104;-115.370;2022-12-18T04:09:56;1.00;;;0.50;;
74535;SDS011;63013;51.104;-115.370;2022-12-18T04:12:29;1.30;;;0.40;;
74535;SDS011;63013;51.104;-115.370;2022-12-18T04:14:56;1.00;;;0.50;;
74535;SDS011;63013;51.104;-115.370;2022-12-18T04:17:24;1.70;;;0.50;;
74535;SDS011;63013;51.104;-115.370;2022-12-18T04:19:51;2.70;;;0.60;;
74535;SDS011;63013;51.104;-115.370;2022-12-18T04:22:18;1.60;;;0.70;;
74535;SDS011;63013;51.104;-115.370;2022-12-18T04:24:46;1.20;;;0.50;;
74535;SDS011;63013;51.104;-115.370;2022-12-18T04:27:13;0.80;;;0.40;;
74535;SDS011;63013;51.104;-115.370;2022-12-18T04:29:40;1.40;;;0.50;;
74535;SDS011;63013;51.104;-115.370;2022-12-18T04:32:08;1.80;;;0.80;;
74535;SDS011;63013;51.104;-115.370;2022-12-18T04:34:35;1.40;;;0.40;;
74535;SDS011;63013;51.104;-115.370;2022-12-18T04:37:03;1.30;;;0.60;;
74535;SDS011;63013;51.104;-115.370;2022-12-18T04:39:30;2.30;;;0.50;;
74535;SDS011;63013;51.104;-115.370;2022-12-18T04:41:57;1.50;;;0.60;;
74535;SDS011;63013;51.104;-115.370;2022-12-18T04:44:25;0.80;;;0.50;;
74535;SDS011;63013;51.104;-115.370;2022-12-18T04:46:52;0.90;;;0.40;;
74535;SDS011;63013;51.104;-115.370;2022-12-18T04:49:19;1.00;;;0.60;;
74535;SDS011;63013;51.104;-115.370;2022-12-18T04:51:46;1.70;;;0.50;;
74535;SDS011;63013;51.104;-115.370;2022-12-18T04:54:13;1.10;;;0.60;;
74535;SDS011;63013;51.104;-115.370;2022-12-18T04:56:41;0.90;;;0.50;;
74535;SDS011;63013;51.104;-115.370;2022-12-18T04:59:08;1.10;;;0.60;;
74535;SDS011;63013;51.104;-115.370;2022-12-18T05:01:35;1.70;;;0.70;;
74535;SDS011;63013;51.104;-115.370;2022-12-18T05:04:03;1.20;;;0.50;;
74535;SDS011;63013;51.104;-115.370;2022-12-18T05:06:30;2.30;;;0.50;;
74535;SDS011;63013;51.104;-115.370;2022-12-18T05:08:57;1.90;;;0.50;;
74535;SDS011;63013;51.104;-115.370;2022-12-18T05:11:25;0.90;;;0.70;;
74535;SDS011;63013;51.104;-115.370;2022-12-18T05:13:52;1.40;;;0.60;;
74535;SDS011;63013;51.104;-115.370;2022-12-18T05:16:19;1.20;;;0.60;;
74535;SDS011;63013;51.104;-115.370;2022-12-18T05:18:46;1.50;;;0.50;;
74535;SDS011;63013;51.104;-115.370;2022-12-18T05:21:14;1.90;;;0.70;;
74535;SDS011;63013;51.104;-115.370;2022-12-18T05:23:41;2.30;;;0.70;;
74535;SDS011;63013;51.104;-115.370;2022-12-18T05:26:08;1.00;;;0.60;;
74535;SDS011;63013;51.104;-115.370;2022-12-18T05:28:40;0.80;;;0.50;;
74535;SDS011;63013;51.104;-115.370;2022-12-18T05:31:07;2.60;;;0.60;;
74535;SDS011;63013;51.104;-115.370;2022-12-18T05:33:35;2.30;;;0.50;;
74535;SDS011;63013;51.104;-115.370;2022-12-18T05:36:05;1.50;;;0.50;;
74535;SDS011;63013;51.104;-115.370;2022-12-18T05:38:34;1.50;;;0.50;;
74535;SDS011;63013;51.104;-115.370;2022-12-18T05:41:03;2.10;;;0.60;;
74535;SDS011;63013;51.104;-115.370;2022-12-18T05:43:31;1.20;;;0.70;;
74535;SDS011;63013;51.104;-115.370;2022-12-18T05:46:04;2.60;;;0.80;;
74535;SDS011;63013;51.104;-115.370;2022-12-18T05:48:32;1.20;;;0.60;;
74535;SDS011;63013;51.104;-115.370;2022-12-18T05:51:08;1.80;;;0.60;;
74535;SDS011;63013;51.104;-115.370;2022-12-18T05:53:38;0.80;;;0.40;;
74535;SDS011;63013;51.104;-115.370;2022-12-18T05:56:07;1.20;;;0.70;;
74535;SDS011;63013;51.104;-115.370;2022-12-18T05:58:41;2.40;;;0.50;;
74535;SDS011;63013;51.104;-115.370;2022-12-18T06:01:10;1.70;;;0.50;;
74535;SDS011;63013;51.104;-115.370;2022-12-18T06:03:39;0.90;;;0.60;;
74535;SDS011;63013;51.104;-115.370;2022-12-18T06:06:25;1.10;;;0.50;;
74535;SDS011;63013;51.104;-115.370;2022-12-18T06:08:54;2.20;;;0.60;;
74535;SDS011;63013;51.104;-115.370;2022-12-18T06:11:24;1.20;;;0.60;;
74535;SDS011;63013;51.104;-115.370;2022-12-18T06:13:56;2.40;;;0.60;;
74535;SDS011;63013;51.104;-115.370;2022-12-18T06:16:23;3.30;;;0.70;;
74535;SDS011;63013;51.104;-115.370;2022-12-18T06:18:51;1.90;;;0.60;;
74535;SDS011;63013;51.104;-115.370;2022-12-18T06:21:18;2.10;;;0.80;;
74535;SDS011;63013;51.104;-115.370;2022-12-18T06:23:45;1.70;;;0.70;;
74535;SDS011;63013;51.104;-115.370;2022-12-18T06:26:13;1.70;;;0.60;;
74535;SDS011;63013;51.104;-115.370;2022-12-18T06:28:41;1.70;;;0.60;;
74535;SDS011;63013;51.104;-115.370;2022-12-18T06:31:09;3.40;;;0.60;;
74535;SDS011;63013;51.104;-115.370;2022-12-18T06:33:37;2.40;;;0.60;;
74535;SDS011;63013;51.104;-115.370;2022-12-18T06:36:10;1.70;;;0.40;;
74535;SDS011;63013;51.104;-115.370;2022-12-18T06:38:41;0.70;;;0.40;;
74535;SDS011;63013;51.104;-115.370;2022-12-18T06:41:13;1.50;;;0.50;;
74535;SDS011;63013;51.104;-115.370;2022-12-18T06:43:45;2.30;;;0.60;;
74535;SDS011;63013;51.104;-115.370;2022-12-18T06:46:13;1.50;;;0.50;;
74535;SDS011;63013;51.104;-115.370;2022-12-18T06:48:40;1.60;;;0.50;;
74535;SDS011;63013;51.104;-115.370;2022-12-18T06:51:08;1.10;;;0.60;;
74535;SDS011;63013;51.104;-115.370;2022-12-18T06:53:35;1.60;;;0.60;;
74535;SDS011;63013;51.104;-115.370;2022-12-18T06:56:04;2.10;;;0.60;;
74535;SDS011;63013;51.104;-115.370;2022-12-18T06:58:33;1.30;;;0.70;;
74535;SDS011;63013;51.104;-115.370;2022-12-18T07:01:01;1.60;;;0.50;;
74535;SDS011;63013;51.104;-115.370;2022-12-18T07:03:30;2.30;;;0.40;;
74535;SDS011;63013;51.104;-115.370;2022-12-18T07:05:58;1.10;;;0.50;;
74535;SDS011;63013;51.104;-115.370;2022-12-18T07:08:25;1.70;;;0.60;;
74535;SDS011;63013;51.104;-115.370;2022-12-18T07:10:52;1.70;;;0.50;;
74535;SDS011;63013;51.104;-115.370;2022-12-18T07:13:20;1.50;;;0.60;;
74535;SDS011;63013;51.104;-115.370;2022-12-18T07:15:47;1.10;;;0.40;;
74535;SDS011;63013;51.104;-115.370;2022-12-18T07:18:14;1.90;;;0.70;;
74535;SDS011;63013;51.104;-115.370;2022-12-18T07:20:42;2.70;;;0.80;;
74535;SDS011;63013;51.104;-115.370;2022-12-18T07:23:10;0.90;;;0.60;;
74535;SDS011;63013;51.104;-115.370;2022-12-18T07:25:37;1.60;;;0.70;;
74535;SDS011;63013;51.104;-115.370;2022-12-18T07:28:05;0.90;;;0.40;;
74535;SDS011;63013;51.104;-115.370;2022-12-18T07:30:32;1.50;;;0.70;;
74535;SDS011;63013;51.104;-115.370;2022-12-18T07:33:00;2.40;;;0.60;;
74535;SDS011;63013;51.104;-115.370;2022-12-18T07:35:27;1.50;;;0.60;;
74535;SDS011;63013;51.104;-115.370;2022-12-18T07:37:54;1.70;;;0.60;;
74535;SDS011;63013;51.104;-115.370;2022-12-18T07:40:21;1.90;;;0.70;;
74535;SDS011;63013;51.104;-115.370;2022-12-18T07:42:48;1.50;;;0.60;;
74535;SDS011;63013;51.104;-115.370;2022-12-18T07:45:15;1.60;;;0.60;;
74535;SDS011;63013;51.104;-115.370;2022-12-18T07:47:43;2.60;;;0.60;;
74535;SDS011;63013;51.104;-115.370;2022-12-18T07:50:11;1.20;;;0.60;;
74535;SDS011;63013;51.104;-115.370;2022-12-18T07:52:39;1.00;;;0.60;;
74535;SDS011;63013;51.104;-115.370;2022-12-18T07:55:07;1.30;;;0.50;;
74535;SDS011;63013;51.104;-115.370;2022-12-18T07:57:34;1.60;;;0.80;;
74535;SDS011;63013;51.104;-115.370;2022-12-18T08:00:02;1.20;;;0.60;;
74535;SDS011;63013;51.104;-115.370;2022-12-18T08:02:31;1.60;;;0.50;;
74535;SDS011;63013;51.104;-115.370;2022-12-18T08:04:58;0.70;;;0.40;;
74535;SDS011;63013;51.104;-115.370;2022-12-18T08:07:25;1.90;;;0.60;;
74535;SDS011;63013;51.104;-115.370;2022-12-18T08:09:52;0.50;;;0.50;;
74535;SDS011;63013;51.104;-115.370;2022-12-18T08:12:19;1.60;;;0.70;;
74535;SDS011;63013;51.104;-115.370;2022-12-18T08:14:47;1.20;;;0.60;;
74535;SDS011;63013;51.104;-115.370;2022-12-18T08:17:14;1.30;;;0.50;;
74535;SDS011;63013;51.104;-115.370;2022-12-18T08:19:41;1.30;;;0.70;;
74535;SDS011;63013;51.104;-115.370;2022-12-18T08:22:08;1.00;;;0.50;;
74535;SDS011;63013;51.104;-115.370;2022-12-18T08:24:35;1.50;;;0.70;;
74535;SDS011;63013;51.104;-115.370;2022-12-18T08:27:03;1.10;;;0.70;;
74535;SDS011;63013;51.104;-115.370;2022-12-18T08:29:30;1.30;;;0.50;;
74535;SDS011;63013;51.104;-115.370;2022-12-18T08:31:58;2.00;;;0.70;;
74535;SDS011;63013;51.104;-115.370;2022-12-18T08:34:25;1.50;;;0.60;;
74535;SDS011;63013;51.104;-115.370;2022-12-18T08:36:52;1.50;;;0.60;;
74535;SDS011;63013;51.104;-115.370;2022-12-18T08:39:19;1.00;;;0.50;;
74535;SDS011;63013;51.104;-115.370;2022-12-18T08:41:46;1.10;;;0.60;;
74535;SDS011;63013;51.104;-115.370;2022-12-18T08:44:33;1.90;;;0.60;;
74535;SDS011;63013;51.104;-115.370;2022-12-18T08:47:05;0.80;;;0.50;;
74535;SDS011;63013;51.104;-115.370;2022-12-18T08:49:33;1.30;;;0.50;;
74535;SDS011;63013;51.104;-115.370;2022-12-18T08:52:01;1.10;;;0.50;;
74535;SDS011;63013;51.104;-115.370;2022-12-18T08:54:29;1.10;;;0.60;;
74535;SDS011;63013;51.104;-115.370;2022-12-18T08:56:56;1.00;;;0.50;;
74535;SDS011;63013;51.104;-115.370;2022-12-18T08:59:23;0.90;;;0.50;;
74535;SDS011;63013;51.104;-115.370;2022-12-18T09:01:52;1.80;;;0.70;;
74535;SDS011;63013;51.104;-115.370;2022-12-18T09:04:21;1.40;;;0.50;;
74535;SDS011;63013;51.104;-115.370;2022-12-18T09:06:49;0.80;;;0.50;;
74535;SDS011;63013;51.104;-115.370;2022-12-18T09:09:16;2.20;;;0.80;;
74535;SDS011;63013;51.104;-115.370;2022-12-18T09:11:43;1.30;;;0.50;;
74535;SDS011;63013;51.104;-115.370;2022-12-18T09:14:10;0.70;;;0.40;;
74535;SDS011;63013;51.104;-115.370;2022-12-18T09:16:37;1.10;;;0.50;;
74535;SDS011;63013;51.104;-115.370;2022-12-18T09:19:05;0.80;;;0.30;;
74535;SDS011;63013;51.104;-115.370;2022-12-18T09:21:34;1.30;;;0.50;;
74535;SDS011;63013;51.104;-115.370;2022-12-18T09:24:01;1.60;;;0.50;;
74535;SDS011;63013;51.104;-115.370;2022-12-18T09:26:29;1.10;;;0.50;;
74535;SDS011;63013;51.104;-115.370;2022-12-18T09:28:56;0.90;;;0.50;;
74535;SDS011;63013;51.104;-115.370;2022-12-18T09:31:24;0.90;;;0.40;;
74535;SDS011;63013;51.104;-115.370;2022-12-18T09:33:51;0.90;;;0.50;;
74535;SDS011;63013;51.104;-115.370;2022-12-18T09:36:21;0.70;;;0.40;;
74535;SDS011;63013;51.104;-115.370;2022-12-18T09:38:48;1.00;;;0.50;;
74535;SDS011;63013;51.104;-115.370;2022-12-18T09:41:41;0.50;;;0.40;;
74535;SDS011;63013;51.104;-115.370;2022-12-18T09:44:34;1.60;;;0.40;;
74535;SDS011;63013;51.104;-115.370;2022-12-18T09:47:17;0.70;;;0.40;;
74535;SDS011;63013;51.104;-115.370;2022-12-18T09:50:05;0.90;;;0.50;;
74535;SDS011;63013;51.104;-115.370;2022-12-18T09:52:51;0.70;;;0.40;;
74535;SDS011;63013;51.104;-115.370;2022-12-18T10:00:56;1.10;;;0.60;;
74535;SDS011;63013;51.104;-115.370;2022-12-18T10:03:24;0.80;;;0.30;;
74535;SDS011;63013;51.104;-115.370;2022-12-18T10:05:59;0.50;;;0.40;;
74535;SDS011;63013;51.104;-115.370;2022-12-18T10:08:44;1.00;;;0.50;;
74535;SDS011;63013;51.104;-115.370;2022-12-18T10:14:36;1.00;;;0.40;;
74535;SDS011;63013;51.104;-115.370;2022-12-18T10:20:38;0.70;;;0.30;;
74535;SDS011;63013;51.104;-115.370;2022-12-18T10:23:18;0.70;;;0.40;;
74535;SDS011;63013;51.104;-115.370;2022-12-18T10:26:16;0.60;;;0.30;;
74535;SDS011;63013;51.104;-115.370;2022-12-18T10:28:44;0.70;;;0.40;;
74535;SDS011;63013;51.104;-115.370;2022-12-18T10:31:18;0.80;;;0.40;;
74535;SDS011;63013;51.104;-115.370;2022-12-18T10:33:49;1.20;;;0.50;;
74535;SDS011;63013;51.104;-115.370;2022-12-18T10:36:16;0.50;;;0.30;;
74535;SDS011;63013;51.104;-115.370;2022-12-18T10:38:43;0.50;;;0.30;;
74535;SDS011;63013;51.104;-115.370;2022-12-18T10:46:38;0.60;;;0.30;;
74535;SDS011;63013;51.104;-115.370;2022-12-18T10:49:17;0.30;;;0.30;;
74535;SDS011;63013;51.104;-115.370;2022-12-18T10:52:18;0.50;;;0.30;;
74535;SDS011;63013;51.104;-115.370;2022-12-18T10:54:57;0.40;;;0.30;;
74535;SDS011;63013;51.104;-115.370;2022-12-18T10:57:38;0.90;;;0.40;;
74535;SDS011;63013;51.104;-115.370;2022-12-18T11:00:27;0.70;;;0.40;;
74535;SDS011;63013;51.104;-115.370;2022-12-18T11:02:57;0.20;;;0.20;;
74535;SDS011;63013;51.104;-115.370;2022-12-18T11:05:27;0.50;;;0.30;;
74535;SDS011;63013;51.104;-115.370;2022-12-18T11:07:56;0.80;;;0.40;;
74535;SDS011;63013;51.104;-115.370;2022-12-18T11:10:36;0.60;;;0.30;;
74535;SDS011;63013;51.104;-115.370;2022-12-18T11:13:27;0.40;;;0.30;;
74535;SDS011;63013;51.104;-115.370;2022-12-18T11:15:58;0.50;;;0.30;;
74535;SDS011;63013;51.104;-115.370;2022-12-18T11:18:32;0.40;;;0.20;;
74535;SDS011;63013;51.104;-115.370;2022-12-18T11:21:07;0.50;;;0.30;;
74535;SDS011;63013;51.104;-115.370;2022-12-18T11:23:59;0.40;;;0.30;;
74535;SDS011;63013;51.104;-115.370;2022-12-18T11:26:34;0.80;;;0.40;;
74535;SDS011;63013;51.104;-115.370;2022-12-18T11:29:10;0.60;;;0.40;;
74535;SDS011;63013;51.104;-115.370;2022-12-18T11:31:43;0.60;;;0.30;;
74535;SDS011;63013;51.104;-115.370;2022-12-18T11:34:34;0.80;;;0.60;;
74535;SDS011;63013;51.104;-115.370;2022-12-18T11:37:01;0.80;;;0.30;;
74535;SDS011;63013;51.104;-115.370;2022-12-18T11:39:50;0.40;;;0.30;;
74535;SDS011;63013;51.104;-115.370;2022-12-18T11:51:13;0.40;;;0.20;;
74535;SDS011;63013;51.104;-115.370;2022-12-18T11:53:45;0.30;;;0.30;;
74535;SDS011;63013;51.104;-115.370;2022-12-18T11:56:43;0.40;;;0.30;;
74535;SDS011;63013;51.104;-115.370;2022-12-18T11:59:54;0.40;;;0.20;;
74535;SDS011;63013;51.104;-115.370;2022-12-18T12:02:42;0.40;;;0.30;;
74535;SDS011;63013;51.104;-115.370;2022-12-18T12:23:16;0.20;;;0.20;;
74535;SDS011;63013;51.104;-115.370;2022-12-18T12:26:02;0.50;;;0.30;;
74535;SDS011;63013;51.104;-115.370;2022-12-18T12:32:00;0.30;;;0.30;;
74535;SDS011;63013;51.104;-115.370;2022-12-18T12:38:25;0.30;;;0.20;;
74535;SDS011;63013;51.104;-115.370;2022-12-18T12:41:23;0.50;;;0.20;;
74535;SDS011;63013;51.104;-115.370;2022-12-18T12:44:24;0.20;;;0.20;;
74535;SDS011;63013;51.104;-115.370;2022-12-18T12:47:37;0.30;;;0.30;;
74535;SDS011;63013;51.104;-115.370;2022-12-18T12:50:16;0.40;;;0.30;;
74535;SDS011;63013;51.104;-115.370;2022-12-18T12:52:52;0.30;;;0.20;;
74535;SDS011;63013;51.104;-115.370;2022-12-18T12:55:28;0.20;;;0.20;;
74535;SDS011;63013;51.104;-115.370;2022-12-18T12:58:05;0.20;;;0.20;;
74535;SDS011;63013;51.104;-115.370;2022-12-18T13:01:10;0.30;;;0.30;;
74535;SDS011;63013;51.104;-115.370;2022-12-18T13:06:50;0.20;;;0.20;;
74535;SDS011;63013;51.104;-115.370;2022-12-18T13:12:56;0.30;;;0.30;;
74535;SDS011;63013;51.104;-115.370;2022-12-18T13:15:37;0.30;;;0.20;;
74535;SDS011;63013;51.104;-115.370;2022-12-18T13:20:41;0.20;;;0.20;;
74535;SDS011;63013;51.104;-115.370;2022-12-18T13:23:28;0.40;;;0.20;;
74535;SDS011;63013;51.104;-115.370;2022-12-18T13:36:54;0.20;;;0.20;;
74535;SDS011;63013;51.104;-115.370;2022-12-18T13:39:31;0.20;;;0.20;;
74535;SDS011;63013;51.104;-115.370;2022-12-18T13:44:34;0.20;;;0.20;;
74535;SDS011;63013;51.104;-115.370;2022-12-18T13:47:27;0.30;;;0.20;;
74535;SDS011;63013;51.104;-115.370;2022-12-18T13:50:22;0.40;;;0.30;;
74535;SDS011;63013;51.104;-115.370;2022-12-18T13:52:52;0.30;;;0.30;;
74535;SDS011;63013;51.104;-115.370;2022-12-18T13:55:22;0.40;;;0.20;;
74535;SDS011;63013;51.104;-115.370;2022-12-18T13:58:03;0.30;;;0.30;;
74535;SDS011;63013;51.104;-115.370;2022-12-18T14:00:31;0.20;;;0.20;;
74535;SDS011;63013;51.104;-115.370;2022-12-18T14:02:59;0.30;;;0.30;;
74535;SDS011;63013;51.104;-115.370;2022-12-18T14:05:27;0.20;;;0.20;;
74535;SDS011;63013;51.104;-115.370;2022-12-18T14:07:59;0.30;;;0.30;;
74535;SDS011;63013;51.104;-115.370;2022-12-18T14:10:44;0.30;;;0.20;;
74535;SDS011;63013;51.104;-115.370;2022-12-18T14:13:35;0.20;;;0.20;;
74535;SDS011;63013;51.104;-115.370;2022-12-18T14:16:06;0.20;;;0.20;;
74535;SDS011;63013;51.104;-115.370;2022-12-18T14:18:54;0.30;;;0.30;;
74535;SDS011;63013;51.104;-115.370;2022-12-18T14:21:27;0.30;;;0.30;;
74535;SDS011;63013;51.104;-115.370;2022-12-18T14:24:17;0.20;;;0.20;;
74535;SDS011;63013;51.104;-115.370;2022-12-18T14:26:48;0.20;;;0.20;;
74535;SDS011;63013;51.104;-115.370;2022-12-18T14:29:29;0.20;;;0.20;;
74535;SDS011;63013;51.104;-115.370;2022-12-18T14:32:10;0.50;;;0.20;;
74535;SDS011;63013;51.104;-115.370;2022-12-18T14:34:40;0.40;;;0.40;;
74535;SDS011;63013;51.104;-115.370;2022-12-18T14:37:11;0.20;;;0.20;;
74535;SDS011;63013;51.104;-115.370;2022-12-18T14:39:39;0.20;;;0.20;;
74535;SDS011;63013;51.104;-115.370;2022-12-18T14:42:11;0.20;;;0.20;;
74535;SDS011;63013;51.104;-115.370;2022-12-18T14:44:38;0.20;;;0.20;;
74535;SDS011;63013;51.104;-115.370;2022-12-18T14:47:12;0.30;;;0.30;;
74535;SDS011;63013;51.104;-115.370;2022-12-18T14:49:42;0.20;;;0.20;;
74535;SDS011;63013;51.104;-115.370;2022-12-18T14:52:29;0.60;;;0.20;;
74535;SDS011;63013;51.104;-115.370;2022-12-18T14:54:58;0.20;;;0.20;;
74535;SDS011;63013;51.104;-115.370;2022-12-18T14:57:31;0.20;;;0.20;;
74535;SDS011;63013;51.104;-115.370;2022-12-18T15:00:15;0.20;;;0.20;;
74535;SDS011;63013;51.104;-115.370;2022-12-18T15:02:51;0.20;;;0.20;;
74535;SDS011;63013;51.104;-115.370;2022-12-18T15:05:26;0.20;;;0.20;;
74535;SDS011;63013;51.104;-115.370;2022-12-18T15:07:57;0.30;;;0.30;;
74535;SDS011;63013;51.104;-115.370;2022-12-18T15:10:29;0.20;;;0.20;;
74535;SDS011;63013;51.104;-115.370;2022-12-18T15:18:04;0.30;;;0.30;;
74535;SDS011;63013;51.104;-115.370;2022-12-18T15:23:36;0.20;;;0.20;;
74535;SDS011;63013;51.104;-115.370;2022-12-18T15:26:18;0.20;;;0.20;;
74535;SDS011;63013;51.104;-115.370;2022-12-18T15:31:30;0.20;;;0.20;;
74535;SDS011;63013;51.104;-115.370;2022-12-18T15:34:21;0.30;;;0.20;;
74535;SDS011;63013;51.104;-115.370;2022-12-18T15:36:50;0.20;;;0.20;;
74535;SDS011;63013;51.104;-115.370;2022-12-18T15:39:17;0.30;;;0.30;;
74535;SDS011;63013;51.104;-115.370;2022-12-18T15:41:45;0.20;;;0.20;;
74535;SDS011;63013;51.104;-115.370;2022-12-18T15:44:31;0.30;;;0.30;;
74535;SDS011;63013;51.104;-115.370;2022-12-18T15:46:59;0.20;;;0.20;;
74535;SDS011;63013;51.104;-115.370;2022-12-18T15:49:26;0.20;;;0.20;;
74535;SDS011;63013;51.104;-115.370;2022-12-18T15:51:56;0.30;;;0.30;;
74535;SDS011;63013;51.104;-115.370;2022-12-18T15:54:26;0.20;;;0.20;;
74535;SDS011;63013;51.104;-115.370;2022-12-18T15:57:12;1.20;;;0.20;;
74535;SDS011;63013;51.104;-115.370;2022-12-18T15:59:53;0.20;;;0.20;;
74535;SDS011;63013;51.104;-115.370;2022-12-18T16:02:24;0.20;;;0.20;;
74535;SDS011;63013;51.104;-115.370;2022-12-18T16:04:52;0.30;;;0.30;;
74535;SDS011;63013;51.104;-115.370;2022-12-18T16:07:20;0.30;;;0.20;;
74535;SDS011;63013;51.104;-115.370;2022-12-18T16:09:48;0.40;;;0.20;;
74535;SDS011;63013;51.104;-115.370;2022-12-18T16:12:23;0.20;;;0.20;;
74535;SDS011;63013;51.104;-115.370;2022-12-18T16:14:51;0.20;;;0.20;;
74535;SDS011;63013;51.104;-115.370;2022-12-18T16:17:18;0.30;;;0.30;;
74535;SDS011;63013;51.104;-115.370;2022-12-18T16:19:46;0.30;;;0.30;;
74535;SDS011;63013;51.104;-115.370;2022-12-18T16:22:21;0.30;;;0.30;;
74535;SDS011;63013;51.104;-115.370;2022-12-18T16:24:53;0.40;;;0.20;;
74535;SDS011;63013;51.104;-115.370;2022-12-18T16:27:22;0.20;;;0.20;;
74535;SDS011;63013;51.104;-115.370;2022-12-18T16:29:51;0.30;;;0.30;;